sensor_id;sensor_type;location;lat;lon;timestamp;P1;durP1;ratioP1;P2;durP2;ratioP2
18084;SDS011;9169;44.492;11.372;2023-04-01T00:01:17;13.97;;;6.73;;
18084;SDS011;9169;44.492;11.372;2023-04-01T00:03:46;12.20;;;6.30;;
18084;SDS011;9169;44.492;11.372;2023-04-01T00:06:16;10.67;;;6.20;;
18084;SDS011;9169;44.492;11.372;2023-04-01T00:08:46;7.90;;;5.33;;
18084;SDS011;9169;44.492;11.372;2023-04-01T00:11:16;10.13;;;6.17;;
18084;SDS011;9169;44.492;11.372;2023-04-01T00:13:45;9.70;;;5.57;;
18084;SDS011;9169;44.492;11.372;2023-04-01T00:16:14;12.47;;;5.70;;
18084;SDS011;9169;44.492;11.372;2023-04-01T00:18:47;11.23;;;6.30;;
18084;SDS011;9169;44.492;11.372;2023-04-01T00:21:16;10.93;;;6.33;;
18084;SDS011;9169;44.492;11.372;2023-04-01T00:23:45;10.67;;;5.90;;
18084;SDS011;9169;44.492;11.372;2023-04-01T00:26:16;10.30;;;6.10;;
18084;SDS011;9169;44.492;11.372;2023-04-01T00:28:47;13.17;;;6.33;;
18084;SDS011;9169;44.492;11.372;2023-04-01T00:31:16;9.50;;;6.50;;
18084;SDS011;9169;44.492;11.372;2023-04-01T00:33:44;11.53;;;6.77;;
18084;SDS011;9169;44.492;11.372;2023-04-01T00:36:14;8.90;;;6.93;;
18084;SDS011;9169;44.492;11.372;2023-04-01T00:38:44;10.83;;;6.47;;
18084;SDS011;9169;44.492;11.372;2023-04-01T00:41:13;10.70;;;6.90;;
18084;SDS011;9169;44.492;11.372;2023-04-01T00:43:45;10.57;;;6.30;;
18084;SDS011;9169;44.492;11.372;2023-04-01T00:46:15;11.23;;;6.10;;
18084;SDS011;9169;44.492;11.372;2023-04-01T00:48:46;9.73;;;5.80;;
18084;SDS011;9169;44.492;11.372;2023-04-01T00:51:18;13.60;;;6.03;;
18084;SDS011;9169;44.492;11.372;2023-04-01T00:53:50;11.53;;;7.60;;
18084;SDS011;9169;44.492;11.372;2023-04-01T00:56:24;10.93;;;6.50;;
18084;SDS011;9169;44.492;11.372;2023-04-01T00:58:57;8.03;;;6.73;;
18084;SDS011;9169;44.492;11.372;2023-04-01T01:01:28;10.67;;;7.03;;
18084;SDS011;9169;44.492;11.372;2023-04-01T01:03:58;15.83;;;7.40;;
18084;SDS011;9169;44.492;11.372;2023-04-01T01:06:36;12.20;;;8.30;;
18084;SDS011;9169;44.492;11.372;2023-04-01T01:09:18;16.37;;;8.03;;
18084;SDS011;9169;44.492;11.372;2023-04-01T01:11:57;20.43;;;8.13;;
18084;SDS011;9169;44.492;11.372;2023-04-01T01:17:33;13.73;;;9.03;;
18084;SDS011;9169;44.492;11.372;2023-04-01T01:20:22;16.60;;;9.43;;
18084;SDS011;9169;44.492;11.372;2023-04-01T01:26:30;16.80;;;9.30;;
18084;SDS011;9169;44.492;11.372;2023-04-01T01:29:14;13.43;;;9.10;;
18084;SDS011;9169;44.492;11.372;2023-04-01T01:31:55;16.23;;;11.20;;
18084;SDS011;9169;44.492;11.372;2023-04-01T01:34:29;11.23;;;9.57;;
18084;SDS011;9169;44.492;11.372;2023-04-01T01:37:06;18.00;;;12.03;;
18084;SDS011;9169;44.492;11.372;2023-04-01T01:39:38;19.37;;;12.40;;
18084;SDS011;9169;44.492;11.372;2023-04-01T01:42:11;16.40;;;11.17;;
18084;SDS011;9169;44.492;11.372;2023-04-01T01:44:44;19.23;;;11.53;;
18084;SDS011;9169;44.492;11.372;2023-04-01T01:47:15;17.93;;;12.97;;
18084;SDS011;9169;44.492;11.372;2023-04-01T01:49:45;16.47;;;12.30;;
18084;SDS011;9169;44.492;11.372;2023-04-01T01:52:16;21.00;;;12.87;;
18084;SDS011;9169;44.492;11.372;2023-04-01T01:54:47;21.53;;;13.93;;
18084;SDS011;9169;44.492;11.372;2023-04-01T01:57:16;18.33;;;13.10;;
18084;SDS011;9169;44.492;11.372;2023-04-01T01:59:50;19.50;;;14.10;;
18084;SDS011;9169;44.492;11.372;2023-04-01T02:02:26;24.30;;;14.40;;
18084;SDS011;9169;44.492;11.372;2023-04-01T02:04:58;27.07;;;14.80;;
18084;SDS011;9169;44.492;11.372;2023-04-01T02:07:30;19.43;;;15.00;;
18084;SDS011;9169;44.492;11.372;2023-04-01T02:10:02;20.30;;;14.03;;
18084;SDS011;9169;44.492;11.372;2023-04-01T02:12:31;21.47;;;15.73;;
18084;SDS011;9169;44.492;11.372;2023-04-01T02:15:03;17.37;;;13.73;;
18084;SDS011;9169;44.492;11.372;2023-04-01T02:17:38;21.23;;;14.50;;
18084;SDS011;9169;44.492;11.372;2023-04-01T02:20:11;20.10;;;14.03;;
18084;SDS011;9169;44.492;11.372;2023-04-01T02:22:47;28.47;;;15.87;;
18084;SDS011;9169;44.492;11.372;2023-04-01T02:25:18;22.87;;;15.47;;
18084;SDS011;9169;44.492;11.372;2023-04-01T02:27:51;22.40;;;16.43;;
18084;SDS011;9169;44.492;11.372;2023-04-01T02:30:21;19.50;;;15.90;;
18084;SDS011;9169;44.492;11.372;2023-04-01T02:32:51;22.47;;;15.70;;
18084;SDS011;9169;44.492;11.372;2023-04-01T02:35:20;26.03;;;17.57;;
18084;SDS011;9169;44.492;11.372;2023-04-01T02:37:51;25.13;;;17.77;;
18084;SDS011;9169;44.492;11.372;2023-04-01T02:40:21;28.90;;;17.40;;
18084;SDS011;9169;44.492;11.372;2023-04-01T02:42:51;27.60;;;16.60;;
18084;SDS011;9169;44.492;11.372;2023-04-01T02:45:19;22.30;;;17.67;;
18084;SDS011;9169;44.492;11.372;2023-04-01T02:47:48;26.17;;;18.43;;
18084;SDS011;9169;44.492;11.372;2023-04-01T02:50:17;21.77;;;17.90;;
18084;SDS011;9169;44.492;11.372;2023-04-01T02:52:45;25.23;;;18.27;;
18084;SDS011;9169;44.492;11.372;2023-04-01T02:55:16;25.57;;;18.27;;
18084;SDS011;9169;44.492;11.372;2023-04-01T02:57:45;21.37;;;17.40;;
18084;SDS011;9169;44.492;11.372;2023-04-01T03:00:20;29.27;;;19.50;;
18084;SDS011;9169;44.492;11.372;2023-04-01T03:02:49;24.33;;;18.27;;
18084;SDS011;9169;44.492;11.372;2023-04-01T03:05:18;25.27;;;17.10;;
18084;SDS011;9169;44.492;11.372;2023-04-01T03:07:47;28.33;;;17.87;;
18084;SDS011;9169;44.492;11.372;2023-04-01T03:10:18;27.53;;;17.60;;
18084;SDS011;9169;44.492;11.372;2023-04-01T03:12:46;24.50;;;15.07;;
18084;SDS011;9169;44.492;11.372;2023-04-01T03:15:15;21.80;;;15.20;;
18084;SDS011;9169;44.492;11.372;2023-04-01T03:17:44;21.23;;;14.00;;
18084;SDS011;9169;44.492;11.372;2023-04-01T03:20:14;23.23;;;12.77;;
18084;SDS011;9169;44.492;11.372;2023-04-01T03:22:46;16.30;;;11.13;;
18084;SDS011;9169;44.492;11.372;2023-04-01T03:25:15;19.47;;;12.13;;
18084;SDS011;9169;44.492;11.372;2023-04-01T03:27:45;16.70;;;12.97;;
18084;SDS011;9169;44.492;11.372;2023-04-01T03:30:14;22.53;;;13.00;;
18084;SDS011;9169;44.492;11.372;2023-04-01T03:32:49;19.83;;;13.30;;
18084;SDS011;9169;44.492;11.372;2023-04-01T03:35:17;17.53;;;12.33;;
18084;SDS011;9169;44.492;11.372;2023-04-01T03:37:47;16.50;;;11.97;;
18084;SDS011;9169;44.492;11.372;2023-04-01T03:40:15;21.13;;;13.27;;
18084;SDS011;9169;44.492;11.372;2023-04-01T03:42:46;18.23;;;13.20;;
18084;SDS011;9169;44.492;11.372;2023-04-01T03:45:15;18.70;;;13.30;;
18084;SDS011;9169;44.492;11.372;2023-04-01T03:47:44;20.17;;;12.40;;
18084;SDS011;9169;44.492;11.372;2023-04-01T03:50:13;24.07;;;13.57;;
18084;SDS011;9169;44.492;11.372;2023-04-01T03:52:41;21.20;;;14.50;;
18084;SDS011;9169;44.492;11.372;2023-04-01T03:55:10;20.73;;;14.83;;
18084;SDS011;9169;44.492;11.372;2023-04-01T03:57:40;21.20;;;14.27;;
18084;SDS011;9169;44.492;11.372;2023-04-01T04:00:16;16.77;;;14.23;;
18084;SDS011;9169;44.492;11.372;2023-04-01T04:02:51;20.67;;;15.50;;
18084;SDS011;9169;44.492;11.372;2023-04-01T04:05:27;20.07;;;14.83;;
18084;SDS011;9169;44.492;11.372;2023-04-01T04:07:56;20.30;;;15.30;;
18084;SDS011;9169;44.492;11.372;2023-04-01T04:10:25;19.13;;;14.53;;
18084;SDS011;9169;44.492;11.372;2023-04-01T04:12:57;24.33;;;15.57;;
18084;SDS011;9169;44.492;11.372;2023-04-01T04:15:28;26.77;;;16.10;;
18084;SDS011;9169;44.492;11.372;2023-04-01T04:17:57;20.03;;;15.80;;
18084;SDS011;9169;44.492;11.372;2023-04-01T04:20:26;22.43;;;16.50;;
18084;SDS011;9169;44.492;11.372;2023-04-01T04:22:54;19.53;;;15.00;;
18084;SDS011;9169;44.492;11.372;2023-04-01T04:25:23;20.03;;;13.27;;
18084;SDS011;9169;44.492;11.372;2023-04-01T04:27:52;16.53;;;13.50;;
18084;SDS011;9169;44.492;11.372;2023-04-01T04:30:22;22.73;;;14.53;;
18084;SDS011;9169;44.492;11.372;2023-04-01T04:32:51;17.27;;;14.43;;
18084;SDS011;9169;44.492;11.372;2023-04-01T04:35:20;18.90;;;13.90;;
18084;SDS011;9169;44.492;11.372;2023-04-01T04:37:48;15.30;;;12.30;;
18084;SDS011;9169;44.492;11.372;2023-04-01T04:40:17;23.60;;;12.77;;
18084;SDS011;9169;44.492;11.372;2023-04-01T04:42:46;17.47;;;12.20;;
18084;SDS011;9169;44.492;11.372;2023-04-01T04:45:16;15.70;;;12.20;;
18084;SDS011;9169;44.492;11.372;2023-04-01T04:47:54;18.23;;;13.63;;
18084;SDS011;9169;44.492;11.372;2023-04-01T04:50:23;15.73;;;11.67;;
18084;SDS011;9169;44.492;11.372;2023-04-01T04:52:52;20.03;;;11.50;;
18084;SDS011;9169;44.492;11.372;2023-04-01T04:55:21;16.13;;;11.80;;
18084;SDS011;9169;44.492;11.372;2023-04-01T04:58:08;19.33;;;11.53;;
18084;SDS011;9169;44.492;11.372;2023-04-01T05:00:41;13.53;;;9.80;;
18084;SDS011;9169;44.492;11.372;2023-04-01T05:03:19;12.27;;;9.77;;
18084;SDS011;9169;44.492;11.372;2023-04-01T05:05:48;13.63;;;9.50;;
18084;SDS011;9169;44.492;11.372;2023-04-01T05:08:19;17.17;;;8.80;;
18084;SDS011;9169;44.492;11.372;2023-04-01T05:10:48;15.23;;;7.97;;
18084;SDS011;9169;44.492;11.372;2023-04-01T05:13:16;9.30;;;7.57;;
18084;SDS011;9169;44.492;11.372;2023-04-01T05:15:46;11.03;;;7.77;;
18084;SDS011;9169;44.492;11.372;2023-04-01T05:18:15;9.60;;;7.77;;
18084;SDS011;9169;44.492;11.372;2023-04-01T05:20:49;14.43;;;8.47;;
18084;SDS011;9169;44.492;11.372;2023-04-01T05:23:20;11.30;;;7.30;;
18084;SDS011;9169;44.492;11.372;2023-04-01T05:25:52;16.40;;;7.73;;
18084;SDS011;9169;44.492;11.372;2023-04-01T05:28:21;13.90;;;7.33;;
18084;SDS011;9169;44.492;11.372;2023-04-01T05:30:52;10.70;;;6.97;;
18084;SDS011;9169;44.492;11.372;2023-04-01T05:33:26;12.93;;;7.67;;
18084;SDS011;9169;44.492;11.372;2023-04-01T05:35:57;10.87;;;7.20;;
18084;SDS011;9169;44.492;11.372;2023-04-01T05:38:34;12.37;;;8.33;;
18084;SDS011;9169;44.492;11.372;2023-04-01T05:41:05;12.33;;;7.80;;
18084;SDS011;9169;44.492;11.372;2023-04-01T05:43:37;10.60;;;7.33;;
18084;SDS011;9169;44.492;11.372;2023-04-01T05:46:26;10.93;;;6.87;;
18084;SDS011;9169;44.492;11.372;2023-04-01T05:48:59;6.83;;;4.70;;
18084;SDS011;9169;44.492;11.372;2023-04-01T05:51:29;6.70;;;4.63;;
18084;SDS011;9169;44.492;11.372;2023-04-01T05:53:58;6.43;;;3.33;;
18084;SDS011;9169;44.492;11.372;2023-04-01T05:56:27;7.40;;;3.23;;
18084;SDS011;9169;44.492;11.372;2023-04-01T05:58:56;11.03;;;3.57;;
18084;SDS011;9169;44.492;11.372;2023-04-01T06:01:24;7.87;;;3.50;;
18084;SDS011;9169;44.492;11.372;2023-04-01T06:03:53;5.53;;;3.10;;
18084;SDS011;9169;44.492;11.372;2023-04-01T06:06:23;6.10;;;2.87;;
18084;SDS011;9169;44.492;11.372;2023-04-01T06:09:05;6.53;;;3.23;;
18084;SDS011;9169;44.492;11.372;2023-04-01T06:14:49;7.23;;;3.40;;
18084;SDS011;9169;44.492;11.372;2023-04-01T06:17:28;7.97;;;2.97;;
18084;SDS011;9169;44.492;11.372;2023-04-01T06:20:08;8.87;;;2.93;;
18084;SDS011;9169;44.492;11.372;2023-04-01T06:22:47;5.00;;;2.83;;
18084;SDS011;9169;44.492;11.372;2023-04-01T06:25:41;6.13;;;3.27;;
18084;SDS011;9169;44.492;11.372;2023-04-01T06:31:30;7.47;;;4.23;;
18084;SDS011;9169;44.492;11.372;2023-04-01T06:34:13;8.27;;;4.20;;
18084;SDS011;9169;44.492;11.372;2023-04-01T06:40:06;7.47;;;4.63;;
18084;SDS011;9169;44.492;11.372;2023-04-01T06:43:07;12.43;;;7.83;;
18084;SDS011;9169;44.492;11.372;2023-04-01T06:46:02;10.77;;;5.63;;
18084;SDS011;9169;44.492;11.372;2023-04-01T06:49:02;75.00;;;55.70;;
18084;SDS011;9169;44.492;11.372;2023-04-01T06:52:17;119.10;;;94.30;;
18084;SDS011;9169;44.492;11.372;2023-04-01T06:55:17;18.30;;;10.90;;
18084;SDS011;9169;44.492;11.372;2023-04-01T06:58:13;15.80;;;11.97;;
18084;SDS011;9169;44.492;11.372;2023-04-01T07:00:49;21.83;;;14.30;;
18084;SDS011;9169;44.492;11.372;2023-04-01T07:03:23;21.20;;;15.13;;
18084;SDS011;9169;44.492;11.372;2023-04-01T07:06:08;24.40;;;17.93;;
18084;SDS011;9169;44.492;11.372;2023-04-01T07:08:50;35.30;;;25.10;;
18084;SDS011;9169;44.492;11.372;2023-04-01T07:11:23;22.73;;;16.30;;
18084;SDS011;9169;44.492;11.372;2023-04-01T07:14:19;44.20;;;32.97;;
18084;SDS011;9169;44.492;11.372;2023-04-01T07:16:52;16.87;;;12.87;;
18084;SDS011;9169;44.492;11.372;2023-04-01T07:19:28;16.33;;;11.93;;
18084;SDS011;9169;44.492;11.372;2023-04-01T07:22:03;15.77;;;12.53;;
18084;SDS011;9169;44.492;11.372;2023-04-01T07:24:54;15.40;;;10.20;;
18084;SDS011;9169;44.492;11.372;2023-04-01T07:27:25;15.90;;;10.60;;
18084;SDS011;9169;44.492;11.372;2023-04-01T07:29:57;17.60;;;11.70;;
18084;SDS011;9169;44.492;11.372;2023-04-01T07:32:30;18.00;;;11.90;;
18084;SDS011;9169;44.492;11.372;2023-04-01T07:35:09;14.37;;;11.60;;
18084;SDS011;9169;44.492;11.372;2023-04-01T07:37:47;22.43;;;15.03;;
18084;SDS011;9169;44.492;11.372;2023-04-01T07:40:27;18.80;;;13.80;;
18084;SDS011;9169;44.492;11.372;2023-04-01T07:43:09;18.77;;;13.20;;
18084;SDS011;9169;44.492;11.372;2023-04-01T07:46:02;16.57;;;12.97;;
18084;SDS011;9169;44.492;11.372;2023-04-01T07:48:39;17.03;;;11.93;;
18084;SDS011;9169;44.492;11.372;2023-04-01T07:51:14;16.10;;;12.50;;
18084;SDS011;9169;44.492;11.372;2023-04-01T07:53:49;14.47;;;11.10;;
18084;SDS011;9169;44.492;11.372;2023-04-01T07:56:25;15.50;;;11.77;;
18084;SDS011;9169;44.492;11.372;2023-04-01T07:59:01;15.30;;;11.07;;
18084;SDS011;9169;44.492;11.372;2023-04-01T08:02:02;14.80;;;11.13;;
18084;SDS011;9169;44.492;11.372;2023-04-01T08:04:45;17.10;;;13.43;;
18084;SDS011;9169;44.492;11.372;2023-04-01T08:07:23;14.90;;;11.37;;
18084;SDS011;9169;44.492;11.372;2023-04-01T08:10:14;13.50;;;10.37;;
18084;SDS011;9169;44.492;11.372;2023-04-01T08:13:12;19.77;;;10.20;;
18084;SDS011;9169;44.492;11.372;2023-04-01T08:16:29;13.43;;;9.30;;
18084;SDS011;9169;44.492;11.372;2023-04-01T08:19:09;16.60;;;11.60;;
18084;SDS011;9169;44.492;11.372;2023-04-01T08:21:51;16.80;;;10.90;;
18084;SDS011;9169;44.492;11.372;2023-04-01T08:24:23;18.40;;;12.50;;
18084;SDS011;9169;44.492;11.372;2023-04-01T08:27:00;19.83;;;16.83;;
18084;SDS011;9169;44.492;11.372;2023-04-01T08:29:34;15.80;;;12.57;;
18084;SDS011;9169;44.492;11.372;2023-04-01T08:32:08;14.03;;;11.60;;
18084;SDS011;9169;44.492;11.372;2023-04-01T08:34:42;19.83;;;14.60;;
18084;SDS011;9169;44.492;11.372;2023-04-01T08:37:25;17.23;;;11.70;;
18084;SDS011;9169;44.492;11.372;2023-04-01T08:40:01;14.93;;;11.23;;
18084;SDS011;9169;44.492;11.372;2023-04-01T08:43:01;18.80;;;14.87;;
18084;SDS011;9169;44.492;11.372;2023-04-01T08:48:53;13.40;;;9.97;;
18084;SDS011;9169;44.492;11.372;2023-04-01T08:54:34;14.77;;;10.50;;
18084;SDS011;9169;44.492;11.372;2023-04-01T08:57:45;14.40;;;10.73;;
18084;SDS011;9169;44.492;11.372;2023-04-01T09:00:38;15.87;;;11.97;;
18084;SDS011;9169;44.492;11.372;2023-04-01T09:03:41;19.70;;;12.33;;
18084;SDS011;9169;44.492;11.372;2023-04-01T09:06:37;19.43;;;12.93;;
18084;SDS011;9169;44.492;11.372;2023-04-01T09:12:37;14.60;;;11.17;;
18084;SDS011;9169;44.492;11.372;2023-04-01T09:15:27;15.33;;;10.80;;
18084;SDS011;9169;44.492;11.372;2023-04-01T09:18:22;31.70;;;24.70;;
18084;SDS011;9169;44.492;11.372;2023-04-01T09:21:02;12.47;;;9.10;;
18084;SDS011;9169;44.492;11.372;2023-04-01T09:24:14;21.67;;;16.30;;
18084;SDS011;9169;44.492;11.372;2023-04-01T09:27:04;32.20;;;23.20;;
18084;SDS011;9169;44.492;11.372;2023-04-01T09:35:42;18.80;;;14.87;;
18084;SDS011;9169;44.492;11.372;2023-04-01T09:38:28;15.30;;;9.97;;
18084;SDS011;9169;44.492;11.372;2023-04-01T09:40:58;13.43;;;10.00;;
18084;SDS011;9169;44.492;11.372;2023-04-01T09:43:54;13.67;;;10.00;;
18084;SDS011;9169;44.492;11.372;2023-04-01T09:46:44;11.57;;;8.70;;
18084;SDS011;9169;44.492;11.372;2023-04-01T09:49:34;12.67;;;8.30;;
18084;SDS011;9169;44.492;11.372;2023-04-01T09:52:18;11.30;;;8.50;;
18084;SDS011;9169;44.492;11.372;2023-04-01T09:55:15;12.53;;;10.70;;
18084;SDS011;9169;44.492;11.372;2023-04-01T09:58:10;16.63;;;8.53;;
18084;SDS011;9169;44.492;11.372;2023-04-01T10:01:30;10.30;;;8.20;;
18084;SDS011;9169;44.492;11.372;2023-04-01T10:13:48;9.97;;;6.80;;
18084;SDS011;9169;44.492;11.372;2023-04-01T10:16:42;7.73;;;5.03;;
18084;SDS011;9169;44.492;11.372;2023-04-01T10:19:38;7.20;;;5.93;;
18084;SDS011;9169;44.492;11.372;2023-04-01T10:22:47;7.77;;;6.07;;
18084;SDS011;9169;44.492;11.372;2023-04-01T10:25:43;6.63;;;5.30;;
18084;SDS011;9169;44.492;11.372;2023-04-01T10:28:51;8.90;;;6.00;;
18084;SDS011;9169;44.492;11.372;2023-04-01T10:31:43;7.20;;;5.20;;
18084;SDS011;9169;44.492;11.372;2023-04-01T10:34:46;10.47;;;6.77;;
18084;SDS011;9169;44.492;11.372;2023-04-01T10:37:42;13.30;;;11.10;;
18084;SDS011;9169;44.492;11.372;2023-04-01T10:40:38;10.20;;;5.10;;
18084;SDS011;9169;44.492;11.372;2023-04-01T10:43:57;11.77;;;5.67;;
18084;SDS011;9169;44.492;11.372;2023-04-01T10:50:12;8.70;;;5.83;;
18084;SDS011;9169;44.492;11.372;2023-04-01T11:03:10;5.40;;;4.20;;
18084;SDS011;9169;44.492;11.372;2023-04-01T11:06:30;6.50;;;4.90;;
18084;SDS011;9169;44.492;11.372;2023-04-01T11:16:08;6.37;;;3.90;;
18084;SDS011;9169;44.492;11.372;2023-04-01T11:19:07;8.17;;;5.60;;
18084;SDS011;9169;44.492;11.372;2023-04-01T11:22:12;7.90;;;4.30;;
18084;SDS011;9169;44.492;11.372;2023-04-01T11:25:11;5.27;;;3.90;;
18084;SDS011;9169;44.492;11.372;2023-04-01T11:28:20;6.93;;;3.87;;
18084;SDS011;9169;44.492;11.372;2023-04-01T11:31:14;6.40;;;4.13;;
18084;SDS011;9169;44.492;11.372;2023-04-01T11:34:11;5.47;;;3.70;;
18084;SDS011;9169;44.492;11.372;2023-04-01T11:36:51;8.47;;;4.90;;
18084;SDS011;9169;44.492;11.372;2023-04-01T11:39:32;4.33;;;3.30;;
18084;SDS011;9169;44.492;11.372;2023-04-01T11:42:41;4.97;;;3.50;;
18084;SDS011;9169;44.492;11.372;2023-04-01T11:45:49;7.33;;;3.80;;
18084;SDS011;9169;44.492;11.372;2023-04-01T11:48:30;4.80;;;3.30;;
18084;SDS011;9169;44.492;11.372;2023-04-01T11:51:28;5.90;;;3.87;;
18084;SDS011;9169;44.492;11.372;2023-04-01T11:54:20;5.67;;;3.90;;
18084;SDS011;9169;44.492;11.372;2023-04-01T11:57:05;7.00;;;4.17;;
18084;SDS011;9169;44.492;11.372;2023-04-01T11:59:50;5.50;;;3.33;;
18084;SDS011;9169;44.492;11.372;2023-04-01T12:02:42;4.83;;;3.00;;
18084;SDS011;9169;44.492;11.372;2023-04-01T12:05:22;5.00;;;3.40;;
18084;SDS011;9169;44.492;11.372;2023-04-01T12:08:04;6.20;;;4.20;;
18084;SDS011;9169;44.492;11.372;2023-04-01T12:10:43;7.33;;;3.80;;
18084;SDS011;9169;44.492;11.372;2023-04-01T12:13:18;5.73;;;3.90;;
18084;SDS011;9169;44.492;11.372;2023-04-01T12:16:03;8.90;;;4.30;;
18084;SDS011;9169;44.492;11.372;2023-04-01T12:18:46;5.00;;;3.67;;
18084;SDS011;9169;44.492;11.372;2023-04-01T12:21:22;5.70;;;4.13;;
18084;SDS011;9169;44.492;11.372;2023-04-01T12:24:13;4.20;;;2.97;;
18084;SDS011;9169;44.492;11.372;2023-04-01T12:27:05;5.20;;;3.17;;
18084;SDS011;9169;44.492;11.372;2023-04-01T12:29:47;6.37;;;3.80;;
18084;SDS011;9169;44.492;11.372;2023-04-01T12:32:29;4.23;;;2.80;;
18084;SDS011;9169;44.492;11.372;2023-04-01T12:35:04;4.97;;;2.23;;
18084;SDS011;9169;44.492;11.372;2023-04-01T12:37:50;3.83;;;2.23;;
18084;SDS011;9169;44.492;11.372;2023-04-01T12:40:31;4.83;;;2.13;;
18084;SDS011;9169;44.492;11.372;2023-04-01T12:43:18;3.47;;;2.10;;
18084;SDS011;9169;44.492;11.372;2023-04-01T12:46:01;4.23;;;3.30;;
18084;SDS011;9169;44.492;11.372;2023-04-01T12:48:50;11.03;;;2.80;;
18084;SDS011;9169;44.492;11.372;2023-04-01T12:51:43;31.03;;;3.97;;
18084;SDS011;9169;44.492;11.372;2023-04-01T12:54:33;4.33;;;2.70;;
18084;SDS011;9169;44.492;11.372;2023-04-01T12:57:31;3.80;;;2.53;;
18084;SDS011;9169;44.492;11.372;2023-04-01T13:00:23;4.53;;;2.70;;
18084;SDS011;9169;44.492;11.372;2023-04-01T13:05:58;4.13;;;2.37;;
18084;SDS011;9169;44.492;11.372;2023-04-01T13:08:48;4.07;;;2.60;;
18084;SDS011;9169;44.492;11.372;2023-04-01T13:11:27;3.60;;;2.57;;
18084;SDS011;9169;44.492;11.372;2023-04-01T13:14:25;3.95;;;2.58;;
18084;SDS011;9169;44.492;11.372;2023-04-01T13:17:14;3.80;;;2.70;;
18084;SDS011;9169;44.492;11.372;2023-04-01T13:19:49;3.83;;;2.47;;
18084;SDS011;9169;44.492;11.372;2023-04-01T13:22:41;4.00;;;2.85;;
18084;SDS011;9169;44.492;11.372;2023-04-01T13:25:22;3.13;;;1.80;;
18084;SDS011;9169;44.492;11.372;2023-04-01T13:27:58;4.45;;;1.73;;
18084;SDS011;9169;44.492;11.372;2023-04-01T13:30:34;4.68;;;1.83;;
18084;SDS011;9169;44.492;11.372;2023-04-01T13:33:13;5.90;;;2.08;;
18084;SDS011;9169;44.492;11.372;2023-04-01T13:35:51;3.33;;;2.38;;
18084;SDS011;9169;44.492;11.372;2023-04-01T13:41:40;3.13;;;2.00;;
18084;SDS011;9169;44.492;11.372;2023-04-01T13:44:28;4.30;;;2.30;;
18084;SDS011;9169;44.492;11.372;2023-04-01T13:47:04;3.22;;;1.95;;
18084;SDS011;9169;44.492;11.372;2023-04-01T13:55:46;3.17;;;1.50;;
18084;SDS011;9169;44.492;11.372;2023-04-01T13:58:38;5.80;;;4.00;;
18084;SDS011;9169;44.492;11.372;2023-04-01T14:01:19;4.47;;;3.05;;
18084;SDS011;9169;44.492;11.372;2023-04-01T14:03:55;4.57;;;1.67;;
18084;SDS011;9169;44.492;11.372;2023-04-01T14:06:49;3.75;;;2.33;;
18084;SDS011;9169;44.492;11.372;2023-04-01T14:09:35;3.15;;;1.70;;
18084;SDS011;9169;44.492;11.372;2023-04-01T14:12:15;4.43;;;2.83;;
18084;SDS011;9169;44.492;11.372;2023-04-01T14:15:00;2.88;;;1.70;;
18084;SDS011;9169;44.492;11.372;2023-04-01T14:20:53;10.60;;;9.50;;
18084;SDS011;9169;44.492;11.372;2023-04-01T14:23:41;5.43;;;3.30;;
18084;SDS011;9169;44.492;11.372;2023-04-01T14:26:21;3.17;;;1.30;;
18084;SDS011;9169;44.492;11.372;2023-04-01T14:29:02;4.40;;;2.72;;
18084;SDS011;9169;44.492;11.372;2023-04-01T14:31:44;3.78;;;2.22;;
18084;SDS011;9169;44.492;11.372;2023-04-01T14:34:26;4.30;;;2.65;;
18084;SDS011;9169;44.492;11.372;2023-04-01T14:37:14;3.35;;;1.75;;
18084;SDS011;9169;44.492;11.372;2023-04-01T14:40:00;3.50;;;1.85;;
18084;SDS011;9169;44.492;11.372;2023-04-01T14:48:34;2.70;;;1.70;;
18084;SDS011;9169;44.492;11.372;2023-04-01T14:51:10;3.97;;;3.05;;
18084;SDS011;9169;44.492;11.372;2023-04-01T14:53:44;3.30;;;1.80;;
18084;SDS011;9169;44.492;11.372;2023-04-01T14:56:39;7.03;;;2.37;;
18084;SDS011;9169;44.492;11.372;2023-04-01T14:59:25;5.70;;;3.13;;
18084;SDS011;9169;44.492;11.372;2023-04-01T15:01:57;4.87;;;3.10;;
18084;SDS011;9169;44.492;11.372;2023-04-01T15:10:35;5.10;;;3.20;;
18084;SDS011;9169;44.492;11.372;2023-04-01T15:16:31;3.60;;;2.00;;
18084;SDS011;9169;44.492;11.372;2023-04-01T15:19:08;4.30;;;1.90;;
18084;SDS011;9169;44.492;11.372;2023-04-01T15:21:50;3.80;;;1.90;;
18084;SDS011;9169;44.492;11.372;2023-04-01T15:24:34;5.70;;;2.20;;
18084;SDS011;9169;44.492;11.372;2023-04-01T15:27:16;7.30;;;3.93;;
18084;SDS011;9169;44.492;11.372;2023-04-01T15:30:02;5.80;;;4.80;;
18084;SDS011;9169;44.492;11.372;2023-04-01T15:32:46;3.60;;;2.90;;
18084;SDS011;9169;44.492;11.372;2023-04-01T15:35:32;5.87;;;2.90;;
18084;SDS011;9169;44.492;11.372;2023-04-01T15:38:08;5.80;;;2.70;;
18084;SDS011;9169;44.492;11.372;2023-04-01T15:40:47;3.40;;;2.23;;
18084;SDS011;9169;44.492;11.372;2023-04-01T15:43:24;3.00;;;1.87;;
18084;SDS011;9169;44.492;11.372;2023-04-01T15:45:58;5.97;;;3.20;;
18084;SDS011;9169;44.492;11.372;2023-04-01T15:48:48;5.40;;;2.10;;
18084;SDS011;9169;44.492;11.372;2023-04-01T15:51:31;6.60;;;2.30;;
18084;SDS011;9169;44.492;11.372;2023-04-01T15:54:22;8.23;;;2.50;;
18084;SDS011;9169;44.492;11.372;2023-04-01T15:57:28;5.63;;;2.33;;
18084;SDS011;9169;44.492;11.372;2023-04-01T16:00:19;3.80;;;2.17;;
18084;SDS011;9169;44.492;11.372;2023-04-01T16:02:57;5.77;;;2.30;;
18084;SDS011;9169;44.492;11.372;2023-04-01T16:05:42;8.33;;;2.50;;
18084;SDS011;9169;44.492;11.372;2023-04-01T16:08:37;8.37;;;2.83;;
18084;SDS011;9169;44.492;11.372;2023-04-01T16:11:18;6.47;;;2.43;;
18084;SDS011;9169;44.492;11.372;2023-04-01T16:14:02;4.07;;;2.20;;
18084;SDS011;9169;44.492;11.372;2023-04-01T16:19:45;5.43;;;2.30;;
18084;SDS011;9169;44.492;11.372;2023-04-01T16:22:20;8.43;;;2.87;;
18084;SDS011;9169;44.492;11.372;2023-04-01T16:24:54;5.97;;;2.80;;
18084;SDS011;9169;44.492;11.372;2023-04-01T16:27:30;8.47;;;2.70;;
18084;SDS011;9169;44.492;11.372;2023-04-01T16:30:16;8.13;;;2.97;;
18084;SDS011;9169;44.492;11.372;2023-04-01T16:32:57;9.10;;;2.53;;
18084;SDS011;9169;44.492;11.372;2023-04-01T16:35:34;8.00;;;2.97;;
18084;SDS011;9169;44.492;11.372;2023-04-01T16:38:12;5.67;;;2.37;;
18084;SDS011;9169;44.492;11.372;2023-04-01T16:40:50;5.73;;;2.60;;
18084;SDS011;9169;44.492;11.372;2023-04-01T16:43:30;6.13;;;2.27;;
18084;SDS011;9169;44.492;11.372;2023-04-01T16:46:14;6.53;;;2.33;;
18084;SDS011;9169;44.492;11.372;2023-04-01T16:49:00;4.57;;;1.87;;
18084;SDS011;9169;44.492;11.372;2023-04-01T16:51:44;3.47;;;1.70;;
18084;SDS011;9169;44.492;11.372;2023-04-01T16:54:18;3.33;;;1.70;;
18084;SDS011;9169;44.492;11.372;2023-04-01T16:57:01;2.77;;;1.40;;
18084;SDS011;9169;44.492;11.372;2023-04-01T16:59:44;10.13;;;1.93;;
18084;SDS011;9169;44.492;11.372;2023-04-01T17:02:23;3.50;;;1.60;;
18084;SDS011;9169;44.492;11.372;2023-04-01T17:04:57;3.37;;;1.50;;
18084;SDS011;9169;44.492;11.372;2023-04-01T17:07:32;5.00;;;1.90;;
18084;SDS011;9169;44.492;11.372;2023-04-01T17:10:17;6.23;;;3.83;;
18084;SDS011;9169;44.492;11.372;2023-04-01T17:13:15;2.93;;;1.43;;
18084;SDS011;9169;44.492;11.372;2023-04-01T17:15:59;6.57;;;1.70;;
18084;SDS011;9169;44.492;11.372;2023-04-01T17:18:37;5.60;;;2.00;;
18084;SDS011;9169;44.492;11.372;2023-04-01T17:21:15;4.63;;;1.87;;
18084;SDS011;9169;44.492;11.372;2023-04-01T17:23:50;7.03;;;2.77;;
18084;SDS011;9169;44.492;11.372;2023-04-01T17:26:24;13.30;;;2.90;;